createdAt,value
2022-10-22T00:00:01.865Z,37.7
2022-10-22T00:05:01.624Z,38.1
2022-10-22T00:10:06.546Z,36.7
2022-10-22T00:15:01.710Z,37.0
2022-10-22T00:20:01.597Z,36.7
2022-10-22T00:25:01.601Z,36.3
2022-10-22T00:30:01.903Z,39.4
2022-10-22T00:35:02.200Z,39.7
2022-10-22T00:40:01.985Z,39.2
2022-10-22T00:45:01.592Z,39.6
2022-10-22T00:50:01.675Z,39.4
2022-10-22T00:55:01.699Z,35.6
2022-10-22T01:00:01.578Z,35.3
2022-10-22T01:05:01.643Z,35.5
2022-10-22T01:15:01.648Z,35.1
2022-10-22T01:30:01.291Z,37.0
2022-10-22T01:35:01.576Z,36.3
2022-10-22T01:40:01.103Z,44.7
2022-10-22T01:45:01.305Z,45.3
2022-10-22T01:50:01.241Z,45.2
2022-10-22T01:55:02.415Z,45.2
2022-10-22T02:00:01.094Z,46.2
2022-10-22T02:05:06.331Z,41.9
2022-10-22T02:10:01.164Z,40.7
2022-10-22T02:15:01.248Z,40.2
2022-10-22T02:20:01.495Z,41.6
2022-10-22T02:25:01.233Z,46.1
2022-10-22T02:30:01.365Z,47.1
2022-10-22T02:35:01.244Z,47.1
2022-10-22T02:40:06.113Z,47.2
2022-10-22T02:45:01.575Z,47.3
2022-10-22T02:50:04.476Z,42.9
2022-10-22T02:55:02.517Z,41.9
2022-10-22T03:00:01.187Z,41.6
2022-10-22T03:05:01.251Z,40.7
2022-10-22T03:10:01.332Z,47.6
2022-10-22T03:15:01.326Z,47.7
2022-10-22T03:20:01.161Z,47.6
2022-10-22T03:25:01.613Z,47.8
2022-10-22T03:30:01.154Z,48.1
2022-10-22T03:35:01.982Z,41.4
2022-10-22T03:40:01.099Z,42.6
2022-10-22T03:45:01.473Z,45.1
2022-10-22T03:50:01.481Z,45.6
2022-10-22T03:55:01.352Z,46.8
2022-10-22T04:00:01.172Z,45.1
2022-10-22T04:05:01.560Z,43.3
2022-10-22T04:10:01.504Z,41.2
2022-10-22T04:15:01.908Z,40.7
2022-10-22T04:20:01.427Z,40.0
2022-10-22T04:25:01.242Z,41.1
2022-10-22T04:30:01.265Z,40.9
2022-10-22T04:35:01.355Z,40.1
2022-10-22T04:40:01.127Z,40.1
2022-10-22T04:45:01.520Z,39.4
2022-10-22T04:50:01.200Z,38.6
2022-10-22T04:55:06.309Z,39.7
2022-10-22T05:00:01.145Z,40.5
2022-10-22T05:05:01.266Z,41.4
2022-10-22T05:10:01.346Z,42.2
2022-10-22T05:15:01.377Z,43.2
2022-10-22T05:20:01.175Z,43.1
2022-10-22T05:25:01.334Z,43.0
2022-10-22T05:30:01.232Z,42.2
2022-10-22T05:35:01.440Z,41.6
2022-10-22T05:45:06.551Z,40.7
2022-10-22T05:50:01.859Z,45.8
2022-10-22T05:55:02.574Z,45.8
2022-10-22T06:00:01.592Z,45.9
2022-10-22T06:05:01.378Z,46.0
2022-10-22T06:10:01.254Z,46.1
2022-10-22T06:15:01.949Z,41.1
2022-10-22T06:20:01.369Z,41.3
2022-10-22T06:25:01.519Z,41.7
2022-10-22T06:30:01.209Z,41.8
2022-10-22T06:35:01.295Z,41.8
2022-10-22T06:40:01.279Z,42.4
2022-10-22T06:50:01.993Z,41.8
2022-10-22T06:55:01.372Z,41.8
2022-10-22T07:00:01.571Z,41.0
2022-10-22T07:05:01.274Z,40.4
2022-10-22T07:10:01.303Z,41.0
2022-10-22T07:15:01.382Z,41.5
2022-10-22T07:20:01.141Z,42.2
2022-10-22T07:25:07.883Z,42.8
2022-10-22T07:30:01.275Z,42.2
2022-10-22T07:35:01.359Z,42.2
2022-10-22T07:40:04.742Z,41.2
2022-10-22T07:45:01.337Z,42.4
2022-10-22T07:50:01.229Z,42.5
2022-10-22T07:55:01.368Z,43.1
2022-10-22T08:00:01.154Z,43.3
2022-10-22T08:05:01.346Z,42.9
2022-10-22T08:10:01.218Z,40.8
2022-10-22T08:15:01.308Z,40.6
2022-10-22T08:20:01.149Z,40.2
2022-10-22T08:25:01.287Z,39.6
2022-10-22T08:30:01.176Z,44.1
2022-10-22T08:35:02.385Z,44.0
2022-10-22T08:40:01.491Z,44.2
2022-10-22T08:45:01.280Z,44.2
2022-10-22T09:00:01.828Z,40.6
2022-10-22T09:05:02.179Z,40.5
2022-10-22T09:20:01.568Z,44.0
2022-10-22T09:40:01.610Z,42.0
2022-10-22T09:45:01.507Z,41.9
2022-10-22T09:50:07.439Z,41.7
2022-10-22T10:10:02.020Z,41.8
2022-10-22T10:15:02.946Z,41.9
2022-10-22T10:20:09.674Z,42.6
2022-10-22T10:40:01.518Z,40.6
2022-10-22T11:00:01.770Z,36.2
2022-10-22T11:05:01.757Z,37.7
2022-10-22T11:20:02.139Z,38.2
2022-10-22T11:40:01.532Z,36.0
2022-10-22T12:00:01.832Z,35.0
2022-10-22T12:20:03.492Z,39.0
2022-10-22T12:25:02.108Z,40.1
2022-10-22T12:40:02.049Z,38.8
2022-10-22T12:45:02.026Z,38.5
2022-10-22T12:50:01.887Z,37.7
2022-10-22T12:55:01.945Z,37.9
2022-10-22T13:00:02.437Z,37.6
2022-10-22T13:05:02.481Z,37.4
2022-10-22T13:10:02.036Z,37.0
2022-10-22T13:35:01.752Z,35.9
2022-10-22T13:40:01.954Z,35.3
2022-10-22T13:45:01.749Z,35.0
2022-10-22T13:50:01.933Z,35.4
2022-10-22T13:55:01.802Z,34.8
2022-10-22T14:05:06.711Z,34.0
2022-10-22T14:15:01.952Z,33.6
2022-10-22T14:40:02.323Z,38.0
2022-10-22T14:45:02.884Z,39.2
2022-10-22T14:50:01.555Z,39.9
2022-10-22T15:05:01.979Z,38.3
2022-10-22T15:10:01.616Z,37.1
2022-10-22T15:20:01.535Z,34.4
2022-10-22T15:25:01.801Z,34.9
2022-10-22T15:40:01.580Z,36.6
2022-10-22T15:55:01.911Z,38.6
2022-10-22T16:10:01.605Z,35.9
2022-10-22T16:20:06.870Z,38.8
2022-10-22T16:25:01.738Z,38.2
2022-10-22T16:30:01.502Z,39.1
2022-10-22T16:35:02.965Z,38.7
2022-10-22T16:45:01.949Z,36.3
2022-10-22T17:10:02.629Z,38.7
2022-10-22T17:40:01.577Z,36.4
2022-10-22T17:55:01.768Z,36.5
2022-10-22T18:00:01.685Z,36.0
2022-10-22T18:05:01.563Z,36.3
2022-10-22T18:10:01.688Z,35.9
2022-10-22T18:15:01.688Z,35.6
2022-10-22T18:20:06.611Z,35.6
2022-10-22T18:25:01.610Z,36.2
2022-10-22T18:45:01.588Z,36.6
2022-10-22T18:50:01.817Z,36.8
2022-10-22T18:55:05.394Z,37.0
2022-10-22T19:00:01.582Z,36.5
2022-10-22T19:05:01.677Z,36.3
2022-10-22T19:10:01.983Z,36.7
2022-10-22T19:25:02.038Z,37.2
2022-10-22T19:35:03.136Z,37.0
2022-10-22T19:40:11.380Z,37.1
2022-10-22T19:55:07.013Z,38.9
2022-10-22T20:00:13.395Z,38.4
2022-10-22T20:10:01.964Z,37.2
2022-10-22T20:20:07.595Z,34.5
2022-10-22T20:35:01.463Z,34.6
2022-10-22T20:45:01.707Z,35.4
2022-10-22T20:50:07.982Z,35.4
2022-10-22T20:55:02.866Z,35.1
2022-10-22T21:00:01.636Z,35.6
2022-10-22T21:10:01.628Z,35.4
2022-10-22T21:20:02.019Z,35.6
2022-10-22T21:25:03.000Z,35.5
2022-10-22T21:35:03.106Z,36.1
2022-10-22T21:45:21.476Z,36.9
2022-10-22T21:50:11.650Z,37.5
2022-10-22T22:05:06.676Z,37.4
2022-10-22T22:10:02.534Z,37.1
2022-10-22T22:20:01.578Z,37.0
2022-10-22T22:25:02.443Z,38.0
2022-10-22T22:40:02.626Z,42.7
2022-10-22T22:45:01.658Z,43.1
2022-10-22T22:50:04.921Z,43.0
2022-10-22T22:55:01.694Z,43.1
2022-10-22T23:05:01.625Z,40.6
2022-10-22T23:20:06.498Z,43.4
2022-10-22T23:25:01.955Z,44.9
2022-10-22T23:35:01.968Z,46.1
2022-10-22T23:40:02.805Z,45.3
2022-10-22T23:50:01.656Z,43.6
